createdAt,value
2023-03-05T00:01:26.688Z,36.97
2023-03-05T00:03:55.050Z,37.70
2023-03-05T00:06:22.432Z,37.67
2023-03-05T00:08:51.860Z,36.80
2023-03-05T00:11:18.634Z,35.78
2023-03-05T00:13:47.585Z,36.30
2023-03-05T00:16:17.412Z,35.92
2023-03-05T00:18:45.086Z,35.05
2023-03-05T00:21:30.187Z,34.65
2023-03-05T00:23:57.504Z,35.17
2023-03-05T00:26:27.319Z,34.78
2023-03-05T00:28:59.267Z,34.42
2023-03-05T00:31:30.442Z,32.72
2023-03-05T00:34:01.498Z,33.60
2023-03-05T00:36:30.425Z,32.72
2023-03-05T00:38:59.932Z,31.10
2023-03-05T00:41:26.745Z,32.25
2023-03-05T00:43:53.550Z,33.08
2023-03-05T00:46:41.567Z,31.23
2023-03-05T00:49:10.395Z,31.95
2023-03-05T00:51:37.261Z,31.70
2023-03-05T00:54:09.677Z,31.17
2023-03-05T00:56:36.389Z,31.05
2023-03-05T00:59:03.274Z,30.42
2023-03-05T01:01:29.995Z,30.10
2023-03-05T01:03:58.841Z,30.17
2023-03-05T01:06:30.158Z,28.77
2023-03-05T01:11:28.711Z,28.83
2023-03-05T01:13:55.356Z,27.67
2023-03-05T01:16:24.177Z,28.25
2023-03-05T01:18:55.603Z,29.85
2023-03-05T01:21:22.306Z,27.00
2023-03-05T01:23:52.108Z,28.00
2023-03-05T01:26:20.902Z,26.80
2023-03-05T01:28:49.142Z,28.45
2023-03-05T01:31:16.007Z,27.17
2023-03-05T01:33:45.149Z,27.27
2023-03-05T01:36:16.912Z,27.73
2023-03-05T01:38:44.226Z,27.27
2023-03-05T01:41:13.519Z,26.77
2023-03-05T01:43:42.894Z,26.20
2023-03-05T01:46:24.894Z,26.50
2023-03-05T01:49:22.420Z,26.35
2023-03-05T01:52:09.045Z,26.02
2023-03-05T01:54:56.796Z,26.10
2023-03-05T01:57:28.032Z,25.25
2023-03-05T02:02:27.484Z,24.95
2023-03-05T02:05:27.290Z,24.55
2023-03-05T02:07:57.518Z,24.40
2023-03-05T02:10:37.030Z,24.05
2023-03-05T02:13:05.753Z,25.00
2023-03-05T02:15:32.684Z,25.98
2023-03-05T02:17:59.442Z,24.50
2023-03-05T02:20:27.807Z,24.05
2023-03-05T02:22:54.751Z,23.92
2023-03-05T02:25:28.801Z,23.50
2023-03-05T02:28:06.672Z,24.33
2023-03-05T02:30:35.499Z,23.98
2023-03-05T02:33:02.237Z,23.15
2023-03-05T02:35:28.958Z,23.98
2023-03-05T02:37:57.974Z,23.98
2023-03-05T02:40:26.940Z,23.60
2023-03-05T02:42:53.768Z,21.75
2023-03-05T02:45:23.509Z,22.55
2023-03-05T02:47:52.408Z,22.30
2023-03-05T02:50:19.160Z,22.80
2023-03-05T02:52:45.833Z,22.55
2023-03-05T02:55:17.662Z,21.38
2023-03-05T02:57:46.454Z,21.65
2023-03-05T03:00:13.672Z,21.40
2023-03-05T03:02:40.516Z,21.45
2023-03-05T03:05:07.625Z,21.63
2023-03-05T03:07:36.583Z,20.95
2023-03-05T03:10:07.156Z,21.33
2023-03-05T03:12:40.688Z,21.30
2023-03-05T03:15:10.429Z,21.23
2023-03-05T03:17:39.816Z,20.23
2023-03-05T03:20:10.142Z,21.70
2023-03-05T03:22:36.924Z,20.55
2023-03-05T03:25:04.045Z,20.23
2023-03-05T03:27:32.868Z,20.27
2023-03-05T03:30:04.880Z,19.10
2023-03-05T03:32:36.304Z,20.88
2023-03-05T03:35:03.200Z,20.08
2023-03-05T03:37:33.135Z,20.38
2023-03-05T03:40:02.189Z,20.13
2023-03-05T03:42:28.837Z,19.45
2023-03-05T03:44:55.602Z,19.05
2023-03-05T03:47:26.897Z,19.70
2023-03-05T03:52:23.198Z,19.50
2023-03-05T03:54:52.452Z,19.73
2023-03-05T03:57:21.782Z,19.88
2023-03-05T03:59:51.128Z,20.25
2023-03-05T04:02:21.163Z,19.08
2023-03-05T04:04:52.276Z,18.45
2023-03-05T04:07:21.224Z,18.73
2023-03-05T04:09:50.036Z,18.65
2023-03-05T04:12:18.322Z,19.48
2023-03-05T04:14:51.511Z,17.73
2023-03-05T04:17:20.482Z,19.38
2023-03-05T04:19:47.121Z,20.17
2023-03-05T04:22:14.959Z,18.83
2023-03-05T04:24:41.830Z,17.83
2023-03-05T04:27:08.778Z,18.92
2023-03-05T04:29:37.851Z,18.70
2023-03-05T04:32:07.280Z,18.10
2023-03-05T04:34:37.164Z,17.45
2023-03-05T04:37:03.869Z,18.88
2023-03-05T04:39:30.690Z,17.45
2023-03-05T04:41:57.390Z,17.85
2023-03-05T04:44:26.158Z,17.08
2023-03-05T04:46:54.987Z,18.33
2023-03-05T04:49:21.764Z,18.95
2023-03-05T04:51:48.584Z,17.70
2023-03-05T04:54:15.211Z,18.92
2023-03-05T04:56:46.490Z,17.80
2023-03-05T05:01:44.062Z,16.90
2023-03-05T05:04:13.046Z,17.55
2023-03-05T05:06:39.679Z,19.10
2023-03-05T05:09:06.410Z,18.23
2023-03-05T05:11:36.205Z,17.08
2023-03-05T05:14:05.594Z,18.08
2023-03-05T05:16:32.255Z,16.38
2023-03-05T05:18:58.980Z,17.55
2023-03-05T05:21:25.683Z,16.52
2023-03-05T05:23:54.717Z,17.75
2023-03-05T05:26:21.473Z,16.60
2023-03-05T05:28:52.920Z,17.15
2023-03-05T05:31:22.748Z,17.52
2023-03-05T05:33:49.972Z,17.13
2023-03-05T05:36:21.153Z,17.73
2023-03-05T05:38:49.978Z,17.10
2023-03-05T05:41:20.303Z,18.05
2023-03-05T05:43:51.771Z,16.40
2023-03-05T05:46:19.340Z,16.77
2023-03-05T05:48:46.341Z,16.75
2023-03-05T05:51:18.008Z,17.60
2023-03-05T05:53:47.086Z,16.67
2023-03-05T05:56:14.016Z,15.43
2023-03-05T05:58:41.132Z,16.75
2023-03-05T06:01:20.013Z,16.88
2023-03-05T06:03:49.573Z,16.88
2023-03-05T06:06:17.754Z,17.77
2023-03-05T06:08:44.544Z,15.95
2023-03-05T06:11:13.613Z,16.83
2023-03-05T06:13:40.502Z,15.68
2023-03-05T06:16:12.268Z,16.52
2023-03-05T06:18:41.083Z,16.35
2023-03-05T06:21:09.596Z,15.13
2023-03-05T06:23:40.917Z,15.93
2023-03-05T06:28:38.616Z,15.68
2023-03-05T06:31:10.320Z,16.35
2023-03-05T06:33:37.218Z,16.35
2023-03-05T06:36:08.107Z,16.48
2023-03-05T06:38:34.962Z,16.40
2023-03-05T06:41:02.688Z,15.75
2023-03-05T06:43:33.490Z,15.63
2023-03-05T06:46:08.470Z,15.05
2023-03-05T06:48:35.230Z,16.30
2023-03-05T06:51:01.982Z,15.48
2023-03-05T06:53:30.773Z,15.18
2023-03-05T06:55:57.560Z,14.85
2023-03-05T06:58:24.979Z,16.58
2023-03-05T07:00:51.804Z,14.77
2023-03-05T07:03:18.916Z,15.30
2023-03-05T07:05:45.740Z,15.10
2023-03-05T07:08:12.541Z,15.23
2023-03-05T07:10:42.214Z,15.70
2023-03-05T07:13:09.351Z,15.70
2023-03-05T07:15:38.516Z,15.60
2023-03-05T07:18:08.519Z,14.38
2023-03-05T07:20:36.143Z,14.95
2023-03-05T07:23:06.235Z,15.88
2023-03-05T07:25:35.104Z,14.88
2023-03-05T07:28:01.826Z,15.02
2023-03-05T07:30:30.628Z,14.25
2023-03-05T07:32:57.290Z,14.00
2023-03-05T07:35:24.663Z,15.70
2023-03-05T07:37:54.994Z,14.70
2023-03-05T07:40:24.028Z,10.40
2023-03-05T07:42:50.735Z,14.38
2023-03-05T07:45:17.387Z,14.75
2023-03-05T07:47:46.210Z,14.43
2023-03-05T07:50:12.884Z,15.23
2023-03-05T07:52:41.777Z,14.60
2023-03-05T07:55:09.038Z,14.07
2023-03-05T07:57:39.130Z,14.18
2023-03-05T08:00:07.222Z,14.88
2023-03-05T08:02:39.191Z,14.05
2023-03-05T08:05:08.558Z,14.55
2023-03-05T08:07:35.277Z,13.35
2023-03-05T08:10:05.607Z,14.40
2023-03-05T08:12:32.465Z,15.00
2023-03-05T08:15:01.965Z,14.40
2023-03-05T08:17:30.899Z,13.27
2023-03-05T08:20:05.404Z,15.05
2023-03-05T08:22:37.649Z,14.02
2023-03-05T08:25:04.838Z,14.10
2023-03-05T08:27:33.672Z,14.23
2023-03-05T08:30:02.222Z,15.18
2023-03-05T08:32:28.922Z,15.07
2023-03-05T08:34:58.777Z,14.48
2023-03-05T08:37:26.393Z,14.43
2023-03-05T08:39:53.163Z,14.07
2023-03-05T08:42:22.686Z,14.35
2023-03-05T08:44:51.572Z,14.85
2023-03-05T08:47:20.400Z,14.00
2023-03-05T08:49:49.406Z,14.30
2023-03-05T08:52:21.049Z,15.20
2023-03-05T08:54:50.974Z,14.57
2023-03-05T08:57:19.917Z,15.50
2023-03-05T08:59:46.884Z,16.38
2023-03-05T09:02:13.785Z,16.95
2023-03-05T09:04:40.699Z,16.38
2023-03-05T09:07:07.590Z,17.98
2023-03-05T09:09:34.275Z,17.40
2023-03-05T09:12:01.220Z,20.17
2023-03-05T09:14:28.742Z,20.10
2023-03-05T09:16:58.642Z,21.73
2023-03-05T09:19:27.490Z,23.80
2023-03-05T09:21:57.179Z,24.27
2023-03-05T09:24:26.096Z,24.83
2023-03-05T09:26:52.860Z,24.85
2023-03-05T09:29:21.897Z,26.45
2023-03-05T09:31:51.572Z,26.20
2023-03-05T09:34:20.450Z,28.70
2023-03-05T09:36:47.219Z,30.17
2023-03-05T09:39:13.977Z,31.38
2023-03-05T09:41:49.929Z,31.75
2023-03-05T09:44:35.930Z,32.90
2023-03-05T09:47:26.840Z,32.55
2023-03-05T09:50:01.953Z,33.65
2023-03-05T09:53:01.966Z,33.42
2023-03-05T09:55:40.615Z,34.00
2023-03-05T09:58:25.076Z,37.13
2023-03-05T10:00:55.958Z,35.25
2023-03-05T10:03:25.961Z,33.65
2023-03-05T10:06:04.217Z,36.13
2023-03-05T10:08:55.590Z,34.08
2023-03-05T10:11:53.566Z,35.47
2023-03-05T10:14:23.854Z,36.33
2023-03-05T10:17:28.349Z,35.45
2023-03-05T10:20:04.489Z,37.15
2023-03-05T10:22:41.399Z,35.53
2023-03-05T10:25:14.041Z,34.42
2023-03-05T10:27:54.367Z,34.00
2023-03-05T10:30:54.862Z,34.27
2023-03-05T10:33:59.731Z,32.35
2023-03-05T10:37:04.982Z,35.13
2023-03-05T10:40:09.924Z,32.40
2023-03-05T10:42:55.101Z,33.15
2023-03-05T10:45:26.892Z,32.63
2023-03-05T10:48:12.317Z,32.45
2023-03-05T10:50:43.094Z,31.02
2023-03-05T10:53:29.039Z,31.73
2023-03-05T10:55:57.924Z,29.35
2023-03-05T10:58:27.950Z,31.73
2023-03-05T11:01:19.906Z,31.35
2023-03-05T11:03:55.989Z,30.02
2023-03-05T11:06:28.739Z,30.75
2023-03-05T11:08:55.476Z,30.33
2023-03-05T11:11:25.974Z,29.20
2023-03-05T11:14:00.398Z,29.30
2023-03-05T11:16:28.742Z,29.23
2023-03-05T11:19:33.535Z,30.50
2023-03-05T11:22:22.273Z,28.67
2023-03-05T11:25:16.027Z,28.58
2023-03-05T11:27:54.924Z,28.85
2023-03-05T11:30:38.260Z,28.17
2023-03-05T11:33:16.183Z,28.75
2023-03-05T11:35:46.249Z,28.45
2023-03-05T11:38:24.658Z,27.20
2023-03-05T11:40:53.055Z,27.90
2023-03-05T11:43:27.027Z,27.05
2023-03-05T11:45:55.119Z,26.20
2023-03-05T11:48:36.391Z,27.50
2023-03-05T11:51:16.202Z,27.25
2023-03-05T11:53:42.830Z,26.25
2023-03-05T11:56:34.504Z,26.27
2023-03-05T11:59:21.674Z,26.65
2023-03-05T12:01:55.119Z,26.20
2023-03-05T12:04:24.088Z,25.35
2023-03-05T12:06:52.425Z,25.20
2023-03-05T12:09:25.921Z,25.88
2023-03-05T12:11:56.666Z,25.67
2023-03-05T12:14:39.792Z,25.42
2023-03-05T12:17:20.161Z,25.67
2023-03-05T12:20:10.054Z,24.60
2023-03-05T12:22:38.122Z,23.33
2023-03-05T12:25:17.421Z,24.08
2023-03-05T12:27:46.365Z,22.92
2023-03-05T12:30:34.479Z,24.15
2023-03-05T12:33:02.409Z,22.10
2023-03-05T12:35:35.969Z,23.52
2023-03-05T12:38:25.875Z,23.38
2023-03-05T12:40:53.363Z,22.53
2023-03-05T12:43:33.150Z,21.90
2023-03-05T12:46:35.864Z,18.35
2023-03-05T12:49:27.991Z,17.88
2023-03-05T12:51:56.093Z,17.33
2023-03-05T12:54:33.201Z,17.17
2023-03-05T12:57:01.919Z,16.85
2023-03-05T12:59:33.529Z,16.13
2023-03-05T13:02:03.796Z,15.82
2023-03-05T13:04:31.870Z,15.00
2023-03-05T13:07:16.872Z,16.33
2023-03-05T13:09:54.863Z,16.50
2023-03-05T13:12:21.675Z,17.13
2023-03-05T13:14:56.193Z,16.10
2023-03-05T13:17:39.273Z,15.57
2023-03-05T13:20:24.918Z,16.48
2023-03-05T13:23:14.108Z,14.27
2023-03-05T13:25:42.947Z,16.67
2023-03-05T13:28:16.892Z,16.15
2023-03-05T13:30:53.756Z,16.65
2023-03-05T13:33:25.533Z,15.98
2023-03-05T13:35:53.906Z,13.93
2023-03-05T13:38:31.021Z,14.75
2023-03-05T13:41:04.835Z,14.73
2023-03-05T13:43:31.639Z,14.60
2023-03-05T13:46:00.630Z,15.05
2023-03-05T13:48:27.714Z,15.00
2023-03-05T13:50:58.643Z,13.85
2023-03-05T13:53:31.165Z,15.10
2023-03-05T13:56:01.666Z,14.02
2023-03-05T13:58:53.191Z,14.67
2023-03-05T14:01:48.446Z,13.13
2023-03-05T14:04:15.545Z,12.98
2023-03-05T14:06:43.162Z,14.30
2023-03-05T14:09:40.668Z,13.00
2023-03-05T14:12:28.276Z,13.13
2023-03-05T14:14:54.900Z,13.43
2023-03-05T14:17:21.566Z,13.73
2023-03-05T14:19:51.252Z,14.05
2023-03-05T14:22:38.037Z,15.20
2023-03-05T14:25:05.680Z,14.95
2023-03-05T14:27:36.122Z,16.00
2023-03-05T14:30:06.237Z,15.93
2023-03-05T14:32:38.921Z,15.85
2023-03-05T14:35:20.598Z,16.77
2023-03-05T14:37:50.394Z,18.17
2023-03-05T14:40:23.353Z,20.00
2023-03-05T14:43:05.741Z,19.73
2023-03-05T14:45:39.882Z,21.17
2023-03-05T14:48:10.950Z,21.35
2023-03-05T14:50:51.765Z,21.35
2023-03-05T14:53:25.835Z,23.30
2023-03-05T14:55:56.772Z,25.13
2023-03-05T14:58:27.511Z,23.90
2023-03-05T15:00:56.921Z,23.92
2023-03-05T15:03:23.744Z,26.23
2023-03-05T15:05:54.657Z,24.98
2023-03-05T15:08:28.863Z,24.52
2023-03-05T15:10:55.882Z,24.90
2023-03-05T15:13:22.634Z,24.35
2023-03-05T15:15:52.462Z,26.10
2023-03-05T15:18:20.103Z,25.02
2023-03-05T15:20:49.221Z,24.30
2023-03-05T15:23:18.490Z,27.00
2023-03-05T15:25:47.316Z,27.33
2023-03-05T15:28:16.528Z,27.05
2023-03-05T15:30:45.807Z,26.20
2023-03-05T15:33:14.186Z,26.20
2023-03-05T15:35:41.257Z,26.75
2023-03-05T15:38:10.694Z,25.35
2023-03-05T15:40:44.254Z,27.02
2023-03-05T15:43:11.003Z,25.75
2023-03-05T15:45:37.744Z,25.67
2023-03-05T15:48:09.225Z,26.23
2023-03-05T15:50:35.961Z,27.35
2023-03-05T15:53:05.153Z,25.98
2023-03-05T15:55:31.859Z,25.30
2023-03-05T15:57:58.572Z,26.50
2023-03-05T16:00:30.389Z,23.73
2023-03-05T16:02:57.172Z,25.17
2023-03-05T16:05:29.101Z,24.92
2023-03-05T16:08:01.122Z,24.85
2023-03-05T16:10:33.445Z,25.13
2023-03-05T16:13:07.914Z,24.17
2023-03-05T16:15:35.252Z,24.13
2023-03-05T16:18:04.615Z,24.17
2023-03-05T16:20:36.295Z,22.83
2023-03-05T16:23:04.408Z,23.98
2023-03-05T16:25:31.169Z,24.10
2023-03-05T16:27:57.856Z,24.33
2023-03-05T16:30:26.671Z,24.13
2023-03-05T16:32:55.515Z,23.58
2023-03-05T16:35:24.590Z,23.77
2023-03-05T16:37:53.526Z,25.67
2023-03-05T16:40:22.631Z,23.77
2023-03-05T16:42:51.630Z,28.27
2023-03-05T16:45:21.239Z,25.35
2023-03-05T16:47:47.885Z,24.45
2023-03-05T16:50:16.844Z,25.05
2023-03-05T16:52:43.654Z,26.13
2023-03-05T16:55:11.503Z,26.05
2023-03-05T16:57:41.143Z,25.08
2023-03-05T17:00:10.751Z,25.40
2023-03-05T17:02:37.654Z,26.50
2023-03-05T17:05:07.136Z,26.40
2023-03-05T17:07:35.919Z,28.60
2023-03-05T17:10:02.653Z,27.00
2023-03-05T17:12:34.022Z,30.20
2023-03-05T17:17:32.548Z,31.50
2023-03-05T17:20:02.495Z,31.65
2023-03-05T17:22:29.243Z,32.55
2023-03-05T17:24:58.256Z,34.35
2023-03-05T17:27:24.881Z,31.98
2023-03-05T17:29:54.582Z,33.50
2023-03-05T17:32:23.398Z,33.45
2023-03-05T17:34:53.857Z,34.08
2023-03-05T17:37:22.996Z,35.00
2023-03-05T17:39:54.340Z,33.80
2023-03-05T17:42:21.251Z,32.50
2023-03-05T17:44:53.170Z,33.03
2023-03-05T17:47:22.552Z,34.50
2023-03-05T17:49:51.332Z,34.45
2023-03-05T17:52:21.114Z,32.97
2023-03-05T17:54:48.971Z,36.10
2023-03-05T17:57:15.784Z,36.00
2023-03-05T17:59:44.421Z,36.83
2023-03-05T18:02:12.090Z,39.15
2023-03-05T18:04:41.312Z,38.08
2023-03-05T18:07:11.130Z,37.67
2023-03-05T18:09:37.930Z,37.70
2023-03-05T18:12:04.930Z,41.72
2023-03-05T18:14:33.783Z,42.30
2023-03-05T18:17:00.482Z,42.65
2023-03-05T18:19:27.393Z,42.63
2023-03-05T18:21:54.106Z,45.38
2023-03-05T18:24:20.693Z,46.35
2023-03-05T18:26:49.521Z,47.33
2023-03-05T18:29:18.628Z,48.55
2023-03-05T18:31:47.632Z,48.40
2023-03-05T18:34:20.352Z,50.13
2023-03-05T18:36:49.230Z,52.08
2023-03-05T18:39:19.688Z,53.75
2023-03-05T18:41:51.576Z,50.57
2023-03-05T18:44:20.836Z,52.20
2023-03-05T18:46:47.627Z,51.15
2023-03-05T18:49:19.305Z,50.72
2023-03-05T18:51:48.714Z,49.45
2023-03-05T18:54:15.375Z,48.75
2023-03-05T18:56:42.219Z,49.17
2023-03-05T18:59:11.294Z,47.40
2023-03-05T19:01:40.312Z,47.65
2023-03-05T19:04:10.134Z,49.47
2023-03-05T19:06:38.324Z,47.42
2023-03-05T19:09:53.712Z,49.33
2023-03-05T19:12:23.631Z,50.10
2023-03-05T19:14:53.521Z,49.15
2023-03-05T19:17:22.373Z,48.88
2023-03-05T19:19:54.979Z,50.15
2023-03-05T19:22:23.792Z,49.47
2023-03-05T19:24:50.506Z,49.90
2023-03-05T19:27:19.466Z,50.40
2023-03-05T19:29:51.081Z,50.40
2023-03-05T19:32:18.163Z,51.33
2023-03-05T19:34:45.191Z,49.85
2023-03-05T19:37:12.199Z,51.60
2023-03-05T19:39:41.721Z,51.50
2023-03-05T19:42:08.479Z,54.90
2023-03-05T19:44:35.394Z,53.88
2023-03-05T19:47:02.182Z,55.17
2023-03-05T19:49:31.264Z,56.17
2023-03-05T19:52:03.463Z,55.58
2023-03-05T19:54:33.283Z,56.88
2023-03-05T19:57:00.237Z,55.75
2023-03-05T19:59:27.085Z,55.80
2023-03-05T20:01:57.548Z,54.45
2023-03-05T20:04:28.238Z,53.93
2023-03-05T20:06:54.887Z,56.47
2023-03-05T20:09:21.689Z,56.83
2023-03-05T20:11:50.644Z,54.67
2023-03-05T20:14:17.418Z,59.20
2023-03-05T20:16:44.288Z,61.45
2023-03-05T20:19:16.324Z,62.42
2023-03-05T20:21:43.424Z,66.53
2023-03-05T20:24:19.875Z,63.50
2023-03-05T20:26:49.428Z,69.15
2023-03-05T20:29:18.081Z,71.28
2023-03-05T20:31:50.022Z,71.68
2023-03-05T20:34:18.289Z,76.30
2023-03-05T20:36:50.399Z,77.32
2023-03-05T20:39:17.057Z,81.35
2023-03-05T20:41:44.252Z,75.95
2023-03-05T20:44:11.571Z,80.60
2023-03-05T20:47:22.304Z,79.07
2023-03-05T20:49:48.960Z,73.40
2023-03-05T20:52:15.794Z,76.00
2023-03-05T20:54:47.638Z,74.45
2023-03-05T20:57:16.510Z,77.18
2023-03-05T20:59:45.607Z,75.43
2023-03-05T21:02:14.533Z,86.28
2023-03-05T21:04:41.202Z,117.00
2023-03-05T21:07:10.088Z,120.07
2023-03-05T21:09:36.903Z,115.47
2023-03-05T21:12:03.809Z,119.72
2023-03-05T21:14:37.654Z,134.07
2023-03-05T21:17:07.993Z,132.40
2023-03-05T21:19:34.781Z,132.60
2023-03-05T21:22:04.590Z,135.98
2023-03-05T21:24:54.522Z,130.27
2023-03-05T21:27:23.429Z,49.63
2023-03-05T21:29:50.442Z,48.00
2023-03-05T21:32:17.024Z,49.50
2023-03-05T21:34:48.910Z,35.15
2023-03-05T21:37:20.272Z,60.33
2023-03-05T21:39:46.997Z,81.07
2023-03-05T21:42:15.905Z,85.22
2023-03-05T21:44:42.526Z,75.38
2023-03-05T21:47:09.262Z,39.83
2023-03-05T21:49:40.854Z,42.38
2023-03-05T21:52:11.795Z,52.42
2023-03-05T21:54:38.879Z,71.30
2023-03-05T21:57:06.018Z,68.88
2023-03-05T21:59:35.163Z,71.20
2023-03-05T22:02:01.821Z,69.75
2023-03-05T22:04:30.650Z,70.15
2023-03-05T22:06:59.670Z,70.05
2023-03-05T22:09:28.485Z,66.47
2023-03-05T22:11:57.677Z,66.65
2023-03-05T22:14:26.767Z,66.32
2023-03-05T22:17:01.707Z,61.03
2023-03-05T22:19:29.903Z,68.70
2023-03-05T22:22:04.196Z,60.22
2023-03-05T22:24:33.189Z,58.65
2023-03-05T22:26:59.925Z,65.22
2023-03-05T22:29:27.464Z,59.20
2023-03-05T22:31:56.822Z,62.53
2023-03-05T22:34:23.428Z,63.03
2023-03-05T22:36:50.034Z,60.42
2023-03-05T22:39:16.821Z,57.22
2023-03-05T22:41:45.608Z,58.40
2023-03-05T22:44:17.432Z,58.97
2023-03-05T22:46:46.456Z,56.47
2023-03-05T22:49:13.193Z,59.58
2023-03-05T22:51:42.147Z,57.05
2023-03-05T22:54:10.900Z,54.15
2023-03-05T22:56:37.566Z,53.60
2023-03-05T22:59:04.313Z,53.45
2023-03-05T23:01:31.031Z,51.92
2023-03-05T23:04:57.344Z,49.22
2023-03-05T23:07:25.828Z,54.35
2023-03-05T23:10:23.040Z,50.80
2023-03-05T23:12:52.137Z,49.75
2023-03-05T23:15:21.570Z,50.35
2023-03-05T23:17:48.256Z,46.33
2023-03-05T23:20:16.941Z,47.95
2023-03-05T23:22:46.312Z,46.78
2023-03-05T23:25:13.736Z,51.47
2023-03-05T23:27:40.575Z,47.42
2023-03-05T23:30:26.508Z,45.92
2023-03-05T23:32:54.099Z,44.38
2023-03-05T23:35:27.745Z,43.60
2023-03-05T23:37:57.008Z,42.85
2023-03-05T23:40:27.747Z,41.20
2023-03-05T23:42:54.435Z,42.30
2023-03-05T23:45:25.747Z,39.58
2023-03-05T23:47:53.042Z,43.50
2023-03-05T23:50:31.152Z,40.35
2023-03-05T23:52:59.940Z,41.58
2023-03-05T23:55:40.358Z,40.30
2023-03-05T23:58:07.160Z,36.45
